Prospect Creek, Prospect Cree, AK

7:22 AM AKDT on August 21, 2014 (GMT -0800)
Bettles | Change Station
CLOSE
Current Station
Airport
Location: Bettles,
Elevation: 643 ft
Nearby Weather Stations

Elev 643 ft 66.91 °N, 151.53 °W | Updated 29 minutes ago

Overcast
Overcast
51 °F
Feels Like 51 °F
N
5
Wind Variable Wind from SSW

Today
High -- | Low -- °F
--% Chance of Precip.
Yesterday
High -- | Low -- °F
Precip. -- in
5:56 AM 10:12 PM
Waning Crescent, 14% visible
Pressure 30.14 in
Visibility 4.0 miles
Clouds Overcast 500 ft
Dew Point 49 °F
Humidity 92%
Rainfall 0.07 in
Snow Depth 0 in
UV 0 out of 12
Pollen Not available.
Air Quality Not available.
Flu Activity Not available.
METAR PABT 211453Z 20004KT 4SM BR OVC005 11/09 A3011 RMK AO2 SLP204 60000 T01060094 55000

More Conditions Fewer Conditions

Pressure 30.14 in
Visibility 4.0 miles
Clouds Overcast 500 ft
Dew Point 49 °F
Humidity 92%
Rainfall 0.07 in
Snow Depth 0 in
UV 0 out of 12
Pollen Not available.
Air Quality Not available.
Flu Activity Not available.
METAR PABT 211453Z 20004KT 4SM BR OVC005 11/09 A3011 RMK AO2 SLP204 60000 T01060094 55000

More Conditions Fewer Conditions

10-Day Weather Forecast

Almanac

Astronomy

Aug. 21, 2014 Rise Set
Actual Time 5:56 AM AKDT 10:12 PM AKDT
Civil Twilight 4:44 AM AKDT 11:22 PM AKDT
Nautical Twilight 2:38 AM AKDT 1:33 AM AKDT
Astronomical Twilight Sun does not rise Sun does not rise
Moon 1:43 AM AKDT 8:27 PM AKDT
Length of Visible Light 18h 37m
Length of Day
16h 15m
Tomorrow will be 7m 43s shorter.
Waning Crescent, 14% of the Moon is Illuminated
Today
Waning Crescent
Aug 25
New
Sep 2
First Quarter
Sep 8
Full
Sep 15
Last Quarter

Today's Extremes

State Highs State Lows

Community

WunderPhotos

Upload Photos

1,745,947 photos uploaded!

Nearby

Snow Depth

Station Depth Elevation
Gobblers Knob 0 in 2030 ft
Coldfoot 1 in 1040 ft
Atigun Pass 0 in 4800 ft
Imnaviat Creek 0 in 3050 ft
Fort Yukon 2 in 430 ft

Earthquake Activity

City Distance Mag. Time & Date
No recent earthquake activity has been reported nearby.
Minimum magnitude displayed is 2.5.

Coastal Water Temperatures

Place Temperature
No Stations Reporting

Nearby Weather Stations